sensor_id;sensor_type;location;lat;lon;timestamp;temperature;humidity
26599;DHT22;14240;51.064;16.612;2022-09-09T00:09:48;16.80;99.90
26599;DHT22;14240;51.064;16.612;2022-09-09T00:15:21;16.70;99.90
26599;DHT22;14240;51.064;16.612;2022-09-09T00:23:12;16.60;99.90
26599;DHT22;14240;51.064;16.612;2022-09-09T00:26:10;16.60;99.90
26599;DHT22;14240;51.064;16.612;2022-09-09T00:28:46;16.60;99.90
26599;DHT22;14240;51.064;16.612;2022-09-09T00:31:18;16.50;99.90
26599;DHT22;14240;51.064;16.612;2022-09-09T00:33:46;16.50;99.90
26599;DHT22;14240;51.064;16.612;2022-09-09T00:36:15;16.50;99.90
26599;DHT22;14240;51.064;16.612;2022-09-09T00:38:47;16.60;99.90
26599;DHT22;14240;51.064;16.612;2022-09-09T00:43:55;16.50;99.90
26599;DHT22;14240;51.064;16.612;2022-09-09T00:46:28;16.40;99.90
26599;DHT22;14240;51.064;16.612;2022-09-09T00:57:09;16.30;99.90
26599;DHT22;14240;51.064;16.612;2022-09-09T00:59:51;16.30;99.90
26599;DHT22;14240;51.064;16.612;2022-09-09T01:02:31;16.30;99.90
26599;DHT22;14240;51.064;16.612;2022-09-09T01:05:07;16.30;99.90
26599;DHT22;14240;51.064;16.612;2022-09-09T01:07:36;16.30;99.90
26599;DHT22;14240;51.064;16.612;2022-09-09T01:10:08;16.20;99.90
26599;DHT22;14240;51.064;16.612;2022-09-09T01:12:41;16.20;99.90
26599;DHT22;14240;51.064;16.612;2022-09-09T01:15:18;16.20;99.90
26599;DHT22;14240;51.064;16.612;2022-09-09T01:18:01;16.20;99.90
26599;DHT22;14240;51.064;16.612;2022-09-09T01:20:44;16.20;99.90
26599;DHT22;14240;51.064;16.612;2022-09-09T01:28:54;16.10;99.90
26599;DHT22;14240;51.064;16.612;2022-09-09T01:31:30;16.10;99.90
26599;DHT22;14240;51.064;16.612;2022-09-09T01:33:57;16.10;99.90
26599;DHT22;14240;51.064;16.612;2022-09-09T01:39:23;16.10;99.90
26599;DHT22;14240;51.064;16.612;2022-09-09T01:41:49;16.10;99.90
26599;DHT22;14240;51.064;16.612;2022-09-09T01:44:16;16.00;99.90
26599;DHT22;14240;51.064;16.612;2022-09-09T01:46:43;16.00;99.90
26599;DHT22;14240;51.064;16.612;2022-09-09T01:49:09;16.00;99.90
26599;DHT22;14240;51.064;16.612;2022-09-09T01:51:36;16.10;99.90
26599;DHT22;14240;51.064;16.612;2022-09-09T01:54:04;16.00;99.90
26599;DHT22;14240;51.064;16.612;2022-09-09T02:07:10;16.00;99.90
26599;DHT22;14240;51.064;16.612;2022-09-09T02:09:40;16.00;99.90
26599;DHT22;14240;51.064;16.612;2022-09-09T02:12:13;16.00;99.90
26599;DHT22;14240;51.064;16.612;2022-09-09T02:14:42;16.00;99.90
26599;DHT22;14240;51.064;16.612;2022-09-09T02:17:14;16.00;99.90
26599;DHT22;14240;51.064;16.612;2022-09-09T02:19:51;16.00;99.90
26599;DHT22;14240;51.064;16.612;2022-09-09T02:22:20;15.90;99.90
26599;DHT22;14240;51.064;16.612;2022-09-09T02:24:47;15.90;99.90
26599;DHT22;14240;51.064;16.612;2022-09-09T02:27:13;16.00;99.90
26599;DHT22;14240;51.064;16.612;2022-09-09T02:29:42;15.90;99.90
26599;DHT22;14240;51.064;16.612;2022-09-09T02:32:14;15.90;99.90
26599;DHT22;14240;51.064;16.612;2022-09-09T02:34:46;15.90;99.90
26599;DHT22;14240;51.064;16.612;2022-09-09T02:37:13;15.90;99.90
26599;DHT22;14240;51.064;16.612;2022-09-09T02:39:40;15.90;99.90
26599;DHT22;14240;51.064;16.612;2022-09-09T02:42:07;15.80;99.90
26599;DHT22;14240;51.064;16.612;2022-09-09T02:44:34;15.80;99.90
26599;DHT22;14240;51.064;16.612;2022-09-09T02:47:18;15.90;99.90
26599;DHT22;14240;51.064;16.612;2022-09-09T02:49:53;15.90;99.90
26599;DHT22;14240;51.064;16.612;2022-09-09T02:57:47;15.80;99.90
26599;DHT22;14240;51.064;16.612;2022-09-09T03:00:13;15.80;99.90
26599;DHT22;14240;51.064;16.612;2022-09-09T03:02:40;15.80;99.90
26599;DHT22;14240;51.064;16.612;2022-09-09T03:05:06;15.90;99.90
26599;DHT22;14240;51.064;16.612;2022-09-09T03:07:32;15.80;99.90
26599;DHT22;14240;51.064;16.612;2022-09-09T03:09:58;15.80;99.90
26599;DHT22;14240;51.064;16.612;2022-09-09T03:12:24;15.80;99.90
26599;DHT22;14240;51.064;16.612;2022-09-09T03:14:49;15.80;99.90
26599;DHT22;14240;51.064;16.612;2022-09-09T03:17:15;15.70;99.90
26599;DHT22;14240;51.064;16.612;2022-09-09T03:19:41;15.70;99.90
26599;DHT22;14240;51.064;16.612;2022-09-09T03:22:08;15.70;99.90
26599;DHT22;14240;51.064;16.612;2022-09-09T03:24:33;15.70;99.90
26599;DHT22;14240;51.064;16.612;2022-09-09T03:26:59;15.70;99.90
26599;DHT22;14240;51.064;16.612;2022-09-09T03:29:24;15.70;99.90
26599;DHT22;14240;51.064;16.612;2022-09-09T03:31:50;15.70;99.90
26599;DHT22;14240;51.064;16.612;2022-09-09T03:34:16;15.70;99.90
26599;DHT22;14240;51.064;16.612;2022-09-09T03:36:42;15.70;99.90
26599;DHT22;14240;51.064;16.612;2022-09-09T03:39:07;15.70;99.90
26599;DHT22;14240;51.064;16.612;2022-09-09T03:41:33;15.70;99.90
26599;DHT22;14240;51.064;16.612;2022-09-09T03:43:59;15.60;99.90
26599;DHT22;14240;51.064;16.612;2022-09-09T03:46:26;15.60;99.90
26599;DHT22;14240;51.064;16.612;2022-09-09T03:48:52;15.60;99.90
26599;DHT22;14240;51.064;16.612;2022-09-09T03:51:17;15.60;99.90
26599;DHT22;14240;51.064;16.612;2022-09-09T03:53:44;15.60;99.90
26599;DHT22;14240;51.064;16.612;2022-09-09T03:56:10;15.60;99.90
26599;DHT22;14240;51.064;16.612;2022-09-09T03:58:36;15.60;99.90
26599;DHT22;14240;51.064;16.612;2022-09-09T04:01:10;15.60;99.90
26599;DHT22;14240;51.064;16.612;2022-09-09T04:03:38;15.60;99.90
26599;DHT22;14240;51.064;16.612;2022-09-09T04:06:06;15.60;99.90
26599;DHT22;14240;51.064;16.612;2022-09-09T04:08:33;15.50;99.90
26599;DHT22;14240;51.064;16.612;2022-09-09T04:11:01;15.50;99.90
26599;DHT22;14240;51.064;16.612;2022-09-09T04:13:27;15.50;99.90
26599;DHT22;14240;51.064;16.612;2022-09-09T04:15:55;15.50;99.90
26599;DHT22;14240;51.064;16.612;2022-09-09T04:18:21;15.50;99.90
26599;DHT22;14240;51.064;16.612;2022-09-09T04:20:49;15.50;99.90
26599;DHT22;14240;51.064;16.612;2022-09-09T04:23:15;15.40;99.90
26599;DHT22;14240;51.064;16.612;2022-09-09T04:25:50;15.40;99.90
26599;DHT22;14240;51.064;16.612;2022-09-09T04:28:16;15.40;99.90
26599;DHT22;14240;51.064;16.612;2022-09-09T04:30:43;15.40;99.90
26599;DHT22;14240;51.064;16.612;2022-09-09T04:33:10;15.40;99.90
26599;DHT22;14240;51.064;16.612;2022-09-09T04:35:36;15.40;99.90
26599;DHT22;14240;51.064;16.612;2022-09-09T04:38:02;15.40;99.90
26599;DHT22;14240;51.064;16.612;2022-09-09T04:40:31;15.40;99.90
26599;DHT22;14240;51.064;16.612;2022-09-09T04:43:00;15.40;99.90
26599;DHT22;14240;51.064;16.612;2022-09-09T04:45:27;15.40;99.90
26599;DHT22;14240;51.064;16.612;2022-09-09T04:47:53;15.40;99.90
26599;DHT22;14240;51.064;16.612;2022-09-09T04:50:19;15.40;99.90
26599;DHT22;14240;51.064;16.612;2022-09-09T04:52:45;15.40;99.90
26599;DHT22;14240;51.064;16.612;2022-09-09T04:55:11;15.40;99.90
26599;DHT22;14240;51.064;16.612;2022-09-09T04:57:38;15.40;99.90
26599;DHT22;14240;51.064;16.612;2022-09-09T05:00:04;15.40;99.90
26599;DHT22;14240;51.064;16.612;2022-09-09T05:02:30;15.50;99.90
26599;DHT22;14240;51.064;16.612;2022-09-09T05:04:56;15.50;99.90
26599;DHT22;14240;51.064;16.612;2022-09-09T05:07:21;15.60;99.90
26599;DHT22;14240;51.064;16.612;2022-09-09T05:09:47;15.60;99.90
26599;DHT22;14240;51.064;16.612;2022-09-09T05:12:15;15.60;99.90
26599;DHT22;14240;51.064;16.612;2022-09-09T05:14:42;15.70;99.90
26599;DHT22;14240;51.064;16.612;2022-09-09T05:17:08;15.70;99.90
26599;DHT22;14240;51.064;16.612;2022-09-09T05:19:33;15.70;99.90
26599;DHT22;14240;51.064;16.612;2022-09-09T05:21:59;15.70;99.90
26599;DHT22;14240;51.064;16.612;2022-09-09T05:24:26;15.80;99.90
26599;DHT22;14240;51.064;16.612;2022-09-09T05:26:52;15.80;99.90
26599;DHT22;14240;51.064;16.612;2022-09-09T05:29:17;15.80;99.90
26599;DHT22;14240;51.064;16.612;2022-09-09T05:31:45;15.80;99.90
26599;DHT22;14240;51.064;16.612;2022-09-09T05:34:12;15.90;99.90
26599;DHT22;14240;51.064;16.612;2022-09-09T05:36:38;16.00;99.90
26599;DHT22;14240;51.064;16.612;2022-09-09T05:39:04;16.00;99.90
26599;DHT22;14240;51.064;16.612;2022-09-09T05:41:30;16.00;99.90
26599;DHT22;14240;51.064;16.612;2022-09-09T05:43:57;15.40;99.90
26599;DHT22;14240;51.064;16.612;2022-09-09T05:46:24;16.10;99.90
26599;DHT22;14240;51.064;16.612;2022-09-09T05:48:50;16.20;99.90
26599;DHT22;14240;51.064;16.612;2022-09-09T05:51:19;16.20;99.90
26599;DHT22;14240;51.064;16.612;2022-09-09T05:53:47;16.40;99.90
26599;DHT22;14240;51.064;16.612;2022-09-09T05:56:15;16.40;99.90
26599;DHT22;14240;51.064;16.612;2022-09-09T05:58:41;16.40;99.90
26599;DHT22;14240;51.064;16.612;2022-09-09T06:01:16;16.50;99.90
26599;DHT22;14240;51.064;16.612;2022-09-09T06:03:43;16.50;99.90
26599;DHT22;14240;51.064;16.612;2022-09-09T06:06:11;16.60;99.90
26599;DHT22;14240;51.064;16.612;2022-09-09T06:08:38;16.70;99.90
26599;DHT22;14240;51.064;16.612;2022-09-09T06:11:10;16.80;99.90
26599;DHT22;14240;51.064;16.612;2022-09-09T06:13:36;16.90;99.90
26599;DHT22;14240;51.064;16.612;2022-09-09T06:16:17;16.90;99.90
26599;DHT22;14240;51.064;16.612;2022-09-09T06:18:43;17.00;99.90
26599;DHT22;14240;51.064;16.612;2022-09-09T06:21:19;17.10;99.90
26599;DHT22;14240;51.064;16.612;2022-09-09T06:23:46;17.30;99.90
26599;DHT22;14240;51.064;16.612;2022-09-09T06:26:20;17.40;99.90
26599;DHT22;14240;51.064;16.612;2022-09-09T06:28:47;17.40;99.90
26599;DHT22;14240;51.064;16.612;2022-09-09T06:31:15;17.50;99.90
26599;DHT22;14240;51.064;16.612;2022-09-09T06:33:49;17.60;99.90
26599;DHT22;14240;51.064;16.612;2022-09-09T06:36:23;17.70;99.90
26599;DHT22;14240;51.064;16.612;2022-09-09T06:38:49;17.70;99.90
26599;DHT22;14240;51.064;16.612;2022-09-09T06:41:17;17.90;99.90
26599;DHT22;14240;51.064;16.612;2022-09-09T06:43:44;17.90;99.90
26599;DHT22;14240;51.064;16.612;2022-09-09T06:46:14;18.00;99.90
26599;DHT22;14240;51.064;16.612;2022-09-09T06:48:41;18.20;99.90
26599;DHT22;14240;51.064;16.612;2022-09-09T06:53:37;18.40;99.90
26599;DHT22;14240;51.064;16.612;2022-09-09T06:58:44;18.60;99.90
26599;DHT22;14240;51.064;16.612;2022-09-09T07:01:12;18.60;99.90
26599;DHT22;14240;51.064;16.612;2022-09-09T07:03:42;18.60;99.90
26599;DHT22;14240;51.064;16.612;2022-09-09T07:06:17;18.70;99.90
26599;DHT22;14240;51.064;16.612;2022-09-09T07:08:43;18.80;99.90
26599;DHT22;14240;51.064;16.612;2022-09-09T07:11:09;18.80;99.90
26599;DHT22;14240;51.064;16.612;2022-09-09T07:13:35;18.80;99.90
26599;DHT22;14240;51.064;16.612;2022-09-09T07:16:08;18.90;99.90
26599;DHT22;14240;51.064;16.612;2022-09-09T07:18:34;18.90;99.90
26599;DHT22;14240;51.064;16.612;2022-09-09T07:21:01;19.00;99.90
26599;DHT22;14240;51.064;16.612;2022-09-09T07:23:28;19.20;99.90
26599;DHT22;14240;51.064;16.612;2022-09-09T07:25:54;19.40;99.90
26599;DHT22;14240;51.064;16.612;2022-09-09T07:28:20;19.70;99.90
26599;DHT22;14240;51.064;16.612;2022-09-09T07:30:56;19.90;99.90
26599;DHT22;14240;51.064;16.612;2022-09-09T07:33:23;20.00;99.90
26599;DHT22;14240;51.064;16.612;2022-09-09T07:35:49;20.00;99.90
26599;DHT22;14240;51.064;16.612;2022-09-09T07:38:15;20.10;99.90
26599;DHT22;14240;51.064;16.612;2022-09-09T07:40:41;20.10;99.90
26599;DHT22;14240;51.064;16.612;2022-09-09T07:43:07;20.30;99.90
26599;DHT22;14240;51.064;16.612;2022-09-09T07:45:34;20.40;99.90
26599;DHT22;14240;51.064;16.612;2022-09-09T07:48:01;20.60;99.90
26599;DHT22;14240;51.064;16.612;2022-09-09T07:50:27;20.70;99.90
26599;DHT22;14240;51.064;16.612;2022-09-09T07:52:53;20.80;99.90
26599;DHT22;14240;51.064;16.612;2022-09-09T07:55:25;20.90;99.90
26599;DHT22;14240;51.064;16.612;2022-09-09T07:57:51;21.00;99.90
26599;DHT22;14240;51.064;16.612;2022-09-09T08:00:17;21.20;99.90
26599;DHT22;14240;51.064;16.612;2022-09-09T08:02:43;21.40;99.90
26599;DHT22;14240;51.064;16.612;2022-09-09T08:05:09;21.50;99.90
26599;DHT22;14240;51.064;16.612;2022-09-09T08:07:34;21.60;99.90
26599;DHT22;14240;51.064;16.612;2022-09-09T08:10:01;21.70;99.90
26599;DHT22;14240;51.064;16.612;2022-09-09T08:12:27;21.80;99.90
26599;DHT22;14240;51.064;16.612;2022-09-09T08:14:52;21.90;99.90
26599;DHT22;14240;51.064;16.612;2022-09-09T08:17:19;21.90;99.90
26599;DHT22;14240;51.064;16.612;2022-09-09T08:19:45;22.00;99.90
26599;DHT22;14240;51.064;16.612;2022-09-09T08:22:11;22.00;99.90
26599;DHT22;14240;51.064;16.612;2022-09-09T08:24:36;22.10;99.90
26599;DHT22;14240;51.064;16.612;2022-09-09T08:27:02;22.10;99.90
26599;DHT22;14240;51.064;16.612;2022-09-09T08:29:28;22.10;99.90
26599;DHT22;14240;51.064;16.612;2022-09-09T08:31:56;22.20;99.90
26599;DHT22;14240;51.064;16.612;2022-09-09T08:34:23;22.30;99.90
26599;DHT22;14240;51.064;16.612;2022-09-09T08:36:50;22.40;99.90
26599;DHT22;14240;51.064;16.612;2022-09-09T08:39:19;22.50;99.90
26599;DHT22;14240;51.064;16.612;2022-09-09T08:57:56;23.00;99.90
26599;DHT22;14240;51.064;16.612;2022-09-09T09:00:23;23.30;99.90
26599;DHT22;14240;51.064;16.612;2022-09-09T09:08:59;24.20;99.90
26599;DHT22;14240;51.064;16.612;2022-09-09T09:11:25;24.40;99.90
26599;DHT22;14240;51.064;16.612;2022-09-09T09:16:38;24.60;99.90
26599;DHT22;14240;51.064;16.612;2022-09-09T09:19:05;24.70;99.90
26599;DHT22;14240;51.064;16.612;2022-09-09T09:24:07;24.70;99.90
26599;DHT22;14240;51.064;16.612;2022-09-09T09:26:38;24.80;99.90
26599;DHT22;14240;51.064;16.612;2022-09-09T09:29:12;24.90;99.90
26599;DHT22;14240;51.064;16.612;2022-09-09T09:31:50;24.90;99.90
26599;DHT22;14240;51.064;16.612;2022-09-09T09:34:16;25.00;99.90
26599;DHT22;14240;51.064;16.612;2022-09-09T09:36:45;25.10;99.90
26599;DHT22;14240;51.064;16.612;2022-09-09T09:39:24;25.10;99.90
26599;DHT22;14240;51.064;16.612;2022-09-09T09:41:51;25.20;99.90
26599;DHT22;14240;51.064;16.612;2022-09-09T09:44:31;25.30;99.80
26599;DHT22;14240;51.064;16.612;2022-09-09T09:49:31;25.50;99.50
26599;DHT22;14240;51.064;16.612;2022-09-09T09:52:12;25.50;98.20
26599;DHT22;14240;51.064;16.612;2022-09-09T09:54:43;25.60;97.80
26599;DHT22;14240;51.064;16.612;2022-09-09T09:57:13;25.70;97.60
26599;DHT22;14240;51.064;16.612;2022-09-09T09:59:40;25.80;98.20
26599;DHT22;14240;51.064;16.612;2022-09-09T10:02:23;25.80;97.90
26599;DHT22;14240;51.064;16.612;2022-09-09T10:05:22;25.90;96.90
26599;DHT22;14240;51.064;16.612;2022-09-09T10:07:59;25.80;95.70
26599;DHT22;14240;51.064;16.612;2022-09-09T10:11:16;25.80;95.60
26599;DHT22;14240;51.064;16.612;2022-09-09T10:18:47;25.90;96.30
26599;DHT22;14240;51.064;16.612;2022-09-09T10:21:39;26.00;96.00
26599;DHT22;14240;51.064;16.612;2022-09-09T10:42:43;26.30;95.40
26599;DHT22;14240;51.064;16.612;2022-09-09T10:45:22;26.30;95.70
26599;DHT22;14240;51.064;16.612;2022-09-09T10:48:06;26.30;94.80
26599;DHT22;14240;51.064;16.612;2022-09-09T10:50:50;26.40;94.90
26599;DHT22;14240;51.064;16.612;2022-09-09T10:53:32;26.40;94.70
26599;DHT22;14240;51.064;16.612;2022-09-09T10:56:11;26.40;93.90
26599;DHT22;14240;51.064;16.612;2022-09-09T10:58:42;26.40;94.50
26599;DHT22;14240;51.064;16.612;2022-09-09T11:01:28;26.40;94.80
26599;DHT22;14240;51.064;16.612;2022-09-09T11:04:05;26.30;94.80
26599;DHT22;14240;51.064;16.612;2022-09-09T11:06:39;26.30;94.70
26599;DHT22;14240;51.064;16.612;2022-09-09T11:09:15;26.30;94.30
26599;DHT22;14240;51.064;16.612;2022-09-09T11:11:48;26.30;94.30
26599;DHT22;14240;51.064;16.612;2022-09-09T11:17:00;26.30;94.20
26599;DHT22;14240;51.064;16.612;2022-09-09T11:19:41;26.20;94.90
26599;DHT22;14240;51.064;16.612;2022-09-09T11:30:35;26.40;95.20
26599;DHT22;14240;51.064;16.612;2022-09-09T11:33:21;26.30;95.50
26599;DHT22;14240;51.064;16.612;2022-09-09T11:41:07;26.30;93.50
26599;DHT22;14240;51.064;16.612;2022-09-09T11:46:13;26.30;93.80
26599;DHT22;14240;51.064;16.612;2022-09-09T11:48:46;26.40;93.40
26599;DHT22;14240;51.064;16.612;2022-09-09T11:51:26;26.40;92.50
26599;DHT22;14240;51.064;16.612;2022-09-09T11:56:44;26.40;92.30
26599;DHT22;14240;51.064;16.612;2022-09-09T11:59:24;26.40;92.60
26599;DHT22;14240;51.064;16.612;2022-09-09T12:07:02;26.10;92.50
26599;DHT22;14240;51.064;16.612;2022-09-09T12:17:31;26.00;92.80
26599;DHT22;14240;51.064;16.612;2022-09-09T12:26:01;26.00;92.60
26599;DHT22;14240;51.064;16.612;2022-09-09T12:31:31;26.00;92.40
26599;DHT22;14240;51.064;16.612;2022-09-09T12:34:11;26.10;91.70
26599;DHT22;14240;51.064;16.612;2022-09-09T12:36:39;26.10;91.50
26599;DHT22;14240;51.064;16.612;2022-09-09T12:41:53;26.20;91.60
26599;DHT22;14240;51.064;16.612;2022-09-09T12:44:23;26.20;91.30
26599;DHT22;14240;51.064;16.612;2022-09-09T12:46:51;26.20;91.50
26599;DHT22;14240;51.064;16.612;2022-09-09T12:49:38;26.20;91.00
26599;DHT22;14240;51.064;16.612;2022-09-09T12:52:06;26.20;91.10
26599;DHT22;14240;51.064;16.612;2022-09-09T12:54:36;26.20;91.30
26599;DHT22;14240;51.064;16.612;2022-09-09T12:57:02;26.30;90.90
26599;DHT22;14240;51.064;16.612;2022-09-09T12:59:37;26.30;90.60
26599;DHT22;14240;51.064;16.612;2022-09-09T13:02:17;26.30;90.80
26599;DHT22;14240;51.064;16.612;2022-09-09T13:04:43;26.20;89.40
26599;DHT22;14240;51.064;16.612;2022-09-09T13:07:11;26.20;89.00
26599;DHT22;14240;51.064;16.612;2022-09-09T13:09:37;26.10;88.60
26599;DHT22;14240;51.064;16.612;2022-09-09T13:12:04;26.10;88.80
26599;DHT22;14240;51.064;16.612;2022-09-09T13:14:35;26.20;89.00
26599;DHT22;14240;51.064;16.612;2022-09-09T13:17:04;26.20;89.00
26599;DHT22;14240;51.064;16.612;2022-09-09T13:19:37;26.20;88.80
26599;DHT22;14240;51.064;16.612;2022-09-09T13:22:21;26.20;88.50
26599;DHT22;14240;51.064;16.612;2022-09-09T13:24:47;26.20;88.90
26599;DHT22;14240;51.064;16.612;2022-09-09T13:27:34;26.10;89.40
26599;DHT22;14240;51.064;16.612;2022-09-09T13:30:00;26.20;88.90
26599;DHT22;14240;51.064;16.612;2022-09-09T13:32:26;26.20;89.70
26599;DHT22;14240;51.064;16.612;2022-09-09T13:34:58;26.20;89.30
26599;DHT22;14240;51.064;16.612;2022-09-09T13:37:35;26.20;90.10
26599;DHT22;14240;51.064;16.612;2022-09-09T13:40:03;26.20;90.40
26599;DHT22;14240;51.064;16.612;2022-09-09T13:42:32;26.20;90.30
26599;DHT22;14240;51.064;16.612;2022-09-09T13:45:01;26.10;90.50
26599;DHT22;14240;51.064;16.612;2022-09-09T13:47:33;26.00;90.60
26599;DHT22;14240;51.064;16.612;2022-09-09T13:50:17;25.90;90.80
26599;DHT22;14240;51.064;16.612;2022-09-09T13:52:44;25.80;91.30
26599;DHT22;14240;51.064;16.612;2022-09-09T13:55:10;25.80;91.10
26599;DHT22;14240;51.064;16.612;2022-09-09T13:57:35;25.70;90.90
26599;DHT22;14240;51.064;16.612;2022-09-09T14:00:01;25.70;90.90
26599;DHT22;14240;51.064;16.612;2022-09-09T14:02:27;25.70;91.10
26599;DHT22;14240;51.064;16.612;2022-09-09T14:04:53;25.70;91.20
26599;DHT22;14240;51.064;16.612;2022-09-09T14:07:21;25.70;91.00
26599;DHT22;14240;51.064;16.612;2022-09-09T14:09:47;25.70;90.90
26599;DHT22;14240;51.064;16.612;2022-09-09T14:12:15;25.60;91.50
26599;DHT22;14240;51.064;16.612;2022-09-09T14:14:42;25.60;91.70
26599;DHT22;14240;51.064;16.612;2022-09-09T14:17:08;25.60;91.50
26599;DHT22;14240;51.064;16.612;2022-09-09T14:19:34;25.60;91.70
26599;DHT22;14240;51.064;16.612;2022-09-09T14:22:00;25.60;92.40
26599;DHT22;14240;51.064;16.612;2022-09-09T14:24:26;25.60;92.10
26599;DHT22;14240;51.064;16.612;2022-09-09T14:26:53;25.50;91.60
26599;DHT22;14240;51.064;16.612;2022-09-09T14:29:19;25.50;91.80
26599;DHT22;14240;51.064;16.612;2022-09-09T14:31:44;25.40;91.70
26599;DHT22;14240;51.064;16.612;2022-09-09T14:34:10;25.40;91.90
26599;DHT22;14240;51.064;16.612;2022-09-09T14:36:37;25.30;92.00
26599;DHT22;14240;51.064;16.612;2022-09-09T14:39:03;25.30;92.30
26599;DHT22;14240;51.064;16.612;2022-09-09T14:41:29;25.20;92.70
26599;DHT22;14240;51.064;16.612;2022-09-09T14:43:55;25.20;92.80
26599;DHT22;14240;51.064;16.612;2022-09-09T14:46:21;25.10;92.50
26599;DHT22;14240;51.064;16.612;2022-09-09T14:48:47;25.10;92.50
26599;DHT22;14240;51.064;16.612;2022-09-09T14:51:14;25.10;92.70
26599;DHT22;14240;51.064;16.612;2022-09-09T14:53:41;25.10;93.00
26599;DHT22;14240;51.064;16.612;2022-09-09T14:56:09;25.00;93.00
26599;DHT22;14240;51.064;16.612;2022-09-09T14:58:36;25.00;93.40
26599;DHT22;14240;51.064;16.612;2022-09-09T15:01:06;24.90;93.70
26599;DHT22;14240;51.064;16.612;2022-09-09T15:03:33;24.80;93.70
26599;DHT22;14240;51.064;16.612;2022-09-09T15:06:08;24.70;94.50
26599;DHT22;14240;51.064;16.612;2022-09-09T15:08:36;24.70;94.60
26599;DHT22;14240;51.064;16.612;2022-09-09T15:11:03;24.70;94.60
26599;DHT22;14240;51.064;16.612;2022-09-09T15:13:29;24.60;94.70
26599;DHT22;14240;51.064;16.612;2022-09-09T15:15:54;24.60;94.70
26599;DHT22;14240;51.064;16.612;2022-09-09T15:18:21;24.50;94.80
26599;DHT22;14240;51.064;16.612;2022-09-09T15:20:47;24.50;94.80
26599;DHT22;14240;51.064;16.612;2022-09-09T15:23:13;24.50;94.90
26599;DHT22;14240;51.064;16.612;2022-09-09T15:25:51;24.50;95.00
26599;DHT22;14240;51.064;16.612;2022-09-09T15:28:17;24.40;95.10
26599;DHT22;14240;51.064;16.612;2022-09-09T15:30:43;24.40;95.40
26599;DHT22;14240;51.064;16.612;2022-09-09T15:33:10;24.30;95.80
26599;DHT22;14240;51.064;16.612;2022-09-09T15:35:36;24.30;95.80
26599;DHT22;14240;51.064;16.612;2022-09-09T15:38:03;24.30;95.90
26599;DHT22;14240;51.064;16.612;2022-09-09T15:40:30;24.30;96.00
26599;DHT22;14240;51.064;16.612;2022-09-09T15:42:58;24.20;96.10
26599;DHT22;14240;51.064;16.612;2022-09-09T15:45:24;24.20;96.40
26599;DHT22;14240;51.064;16.612;2022-09-09T15:47:49;24.20;96.60
26599;DHT22;14240;51.064;16.612;2022-09-09T15:50:15;24.10;96.60
26599;DHT22;14240;51.064;16.612;2022-09-09T15:52:41;24.00;97.10
26599;DHT22;14240;51.064;16.612;2022-09-09T15:55:07;24.00;97.10
26599;DHT22;14240;51.064;16.612;2022-09-09T15:57:36;24.00;97.30
26599;DHT22;14240;51.064;16.612;2022-09-09T16:00:03;24.00;97.70
26599;DHT22;14240;51.064;16.612;2022-09-09T16:02:30;24.20;98.50
26599;DHT22;14240;51.064;16.612;2022-09-09T16:04:56;23.90;98.70
26599;DHT22;14240;51.064;16.612;2022-09-09T16:07:22;23.80;98.90
26599;DHT22;14240;51.064;16.612;2022-09-09T16:09:48;23.70;99.00
26599;DHT22;14240;51.064;16.612;2022-09-09T16:12:16;23.70;99.30
26599;DHT22;14240;51.064;16.612;2022-09-09T16:14:42;23.60;99.50
26599;DHT22;14240;51.064;16.612;2022-09-09T16:17:08;23.50;99.50
26599;DHT22;14240;51.064;16.612;2022-09-09T16:19:34;23.50;99.50
26599;DHT22;14240;51.064;16.612;2022-09-09T16:22:00;23.50;99.90
26599;DHT22;14240;51.064;16.612;2022-09-09T16:24:26;23.40;99.90
26599;DHT22;14240;51.064;16.612;2022-09-09T16:26:55;23.40;99.90
26599;DHT22;14240;51.064;16.612;2022-09-09T16:29:24;23.30;99.90
26599;DHT22;14240;51.064;16.612;2022-09-09T16:31:53;23.20;99.90
26599;DHT22;14240;51.064;16.612;2022-09-09T16:34:20;23.20;99.90
26599;DHT22;14240;51.064;16.612;2022-09-09T16:36:47;23.20;99.90
26599;DHT22;14240;51.064;16.612;2022-09-09T16:39:19;23.10;99.90
26599;DHT22;14240;51.064;16.612;2022-09-09T16:41:45;23.10;99.90
26599;DHT22;14240;51.064;16.612;2022-09-09T16:44:15;23.00;99.90
26599;DHT22;14240;51.064;16.612;2022-09-09T16:46:43;23.00;99.90
26599;DHT22;14240;51.064;16.612;2022-09-09T16:49:11;22.90;99.90
26599;DHT22;14240;51.064;16.612;2022-09-09T16:51:42;22.80;99.90
26599;DHT22;14240;51.064;16.612;2022-09-09T16:54:09;22.80;99.90
26599;DHT22;14240;51.064;16.612;2022-09-09T16:56:37;22.80;99.90
26599;DHT22;14240;51.064;16.612;2022-09-09T16:59:05;22.70;99.90
26599;DHT22;14240;51.064;16.612;2022-09-09T17:01:34;22.70;99.90
26599;DHT22;14240;51.064;16.612;2022-09-09T17:04:05;22.70;99.90
26599;DHT22;14240;51.064;16.612;2022-09-09T17:06:32;22.60;99.90
26599;DHT22;14240;51.064;16.612;2022-09-09T17:09:04;22.60;99.90
26599;DHT22;14240;51.064;16.612;2022-09-09T17:11:30;22.50;99.90
26599;DHT22;14240;51.064;16.612;2022-09-09T17:13:57;22.40;99.90
26599;DHT22;14240;51.064;16.612;2022-09-09T17:16:25;22.40;99.90
26599;DHT22;14240;51.064;16.612;2022-09-09T17:18:53;22.30;99.90
26599;DHT22;14240;51.064;16.612;2022-09-09T17:21:21;21.90;99.90
26599;DHT22;14240;51.064;16.612;2022-09-09T17:23:49;22.20;99.90
26599;DHT22;14240;51.064;16.612;2022-09-09T17:26:18;22.10;99.90
26599;DHT22;14240;51.064;16.612;2022-09-09T17:28:44;22.10;99.90
26599;DHT22;14240;51.064;16.612;2022-09-09T17:31:13;22.10;99.90
26599;DHT22;14240;51.064;16.612;2022-09-09T17:33:43;22.00;99.90
26599;DHT22;14240;51.064;16.612;2022-09-09T17:36:14;21.90;99.90
26599;DHT22;14240;51.064;16.612;2022-09-09T17:38:42;21.90;99.90
26599;DHT22;14240;51.064;16.612;2022-09-09T17:41:17;21.90;99.90
26599;DHT22;14240;51.064;16.612;2022-09-09T17:43:43;21.80;99.90
26599;DHT22;14240;51.064;16.612;2022-09-09T17:46:16;21.80;99.90
26599;DHT22;14240;51.064;16.612;2022-09-09T17:48:43;21.80;99.90
26599;DHT22;14240;51.064;16.612;2022-09-09T17:51:15;21.70;99.90
26599;DHT22;14240;51.064;16.612;2022-09-09T17:53:43;21.70;99.90
26599;DHT22;14240;51.064;16.612;2022-09-09T17:56:11;21.70;99.90
26599;DHT22;14240;51.064;16.612;2022-09-09T17:58:38;21.60;99.90
26599;DHT22;14240;51.064;16.612;2022-09-09T18:01:06;21.60;99.90
26599;DHT22;14240;51.064;16.612;2022-09-09T18:03:39;21.60;99.90
26599;DHT22;14240;51.064;16.612;2022-09-09T18:06:07;21.60;99.90